Terminal Aerodrome Forecast
Issued by NWS

Home | Current Version | Previous Version | Graphics & Text | Print | Product List | Glossary On
Versions: 1 2 3 4 5 6 7 8 9 10 11 12 13 14 15 16 17 18 19 20 21
407
FTUS43 KIWX 212345
TAFSBN
TAF
KSBN 212345Z 2200/2224 01008KT P6SM OVC015
     FM220600 05005KT P6SM OVC015
     FM221300 06008KT P6SM OVC025=

USA.gov is the U.S. government's official web portal to all federal, state and local government web resources and services.